Terminal Aerodrome Forecast
Issued by NWS

Current Version | Previous Version | Graphics & Text | Print | Product List | Glossary On
Versions: 1 2 3 4 5 6 7 8 9 10 11 12 13 14 15 16 17 18 19 20 21
000
FTUS41 KILN 091100
TAFLUK
TAF
KLUK 091127Z 0912/1012 24005KT P6SM SCT070
     FM091500 27008KT P6SM BKN040
     FM100000 34003KT P6SM SCT040
     FM100300 VRB02KT P6SM SKC
     FM100700 00000KT 2SM BR SKC
      TEMPO 1008/1011 1/4SM FG VV001=

USA.gov is the U.S. government's official web portal to all federal, state and local government web resources and services.